createdAt,value
2022-11-24T00:01:15.593Z,4.68
2022-11-24T00:03:43.978Z,4.66
2022-11-24T00:06:13.329Z,4.65
2022-11-24T00:08:42.948Z,4.74
2022-11-24T00:11:12.380Z,4.74
2022-11-24T00:13:40.610Z,4.69
2022-11-24T00:16:11.063Z,4.55
2022-11-24T00:18:42.081Z,4.65
2022-11-24T00:21:10.243Z,4.71
2022-11-24T00:23:38.725Z,4.73
2022-11-24T00:26:08.622Z,4.73
2022-11-24T00:28:37.432Z,4.88
2022-11-24T00:31:06.680Z,4.98
2022-11-24T00:33:34.820Z,5.00
2022-11-24T00:36:04.280Z,5.07
2022-11-24T00:38:32.274Z,5.13
2022-11-24T00:41:00.284Z,5.20
2022-11-24T00:43:28.333Z,5.25
2022-11-24T00:45:56.390Z,5.29
2022-11-24T00:48:24.613Z,5.33
2022-11-24T00:50:59.375Z,5.34
2022-11-24T00:53:28.965Z,5.39
2022-11-24T00:55:57.506Z,5.41
2022-11-24T00:58:26.163Z,5.43
2022-11-24T01:00:54.398Z,5.40
2022-11-24T01:03:22.787Z,5.42
2022-11-24T01:05:50.859Z,5.42
2022-11-24T01:08:19.084Z,5.48
2022-11-24T01:10:48.447Z,5.47
2022-11-24T01:13:16.686Z,5.42
2022-11-24T01:15:44.731Z,5.43
2022-11-24T01:18:13.261Z,5.40
2022-11-24T01:20:41.251Z,5.41
2022-11-24T01:23:09.320Z,5.42
2022-11-24T01:25:40.497Z,5.42
2022-11-24T01:28:09.800Z,5.39
2022-11-24T01:30:37.895Z,5.42
2022-11-24T01:33:06.149Z,5.42
2022-11-24T01:35:34.120Z,5.46
2022-11-24T01:38:02.098Z,5.50
2022-11-24T01:40:30.555Z,5.52
2022-11-24T01:42:58.526Z,5.52
2022-11-24T01:45:37.041Z,5.57
2022-11-24T01:48:07.270Z,5.57
2022-11-24T01:50:36.296Z,5.55
2022-11-24T01:53:04.599Z,5.59
2022-11-24T01:55:35.978Z,5.60
2022-11-24T01:58:06.733Z,5.61
2022-11-24T02:00:38.054Z,5.62
2022-11-24T02:03:06.410Z,5.62
2022-11-24T02:05:40.176Z,5.62
2022-11-24T02:08:13.173Z,5.63
2022-11-24T02:10:44.185Z,5.56
2022-11-24T02:13:12.284Z,5.61
2022-11-24T02:15:41.623Z,5.59
2022-11-24T02:18:09.670Z,5.56
2022-11-24T02:20:38.116Z,5.56
2022-11-24T02:23:15.388Z,5.55
2022-11-24T02:25:49.982Z,5.63
2022-11-24T02:28:21.357Z,5.57
2022-11-24T02:30:49.814Z,5.67
2022-11-24T02:33:18.254Z,5.63
2022-11-24T02:35:46.300Z,5.60
2022-11-24T02:38:14.738Z,5.66
2022-11-24T02:40:44.594Z,5.63
2022-11-24T02:43:15.402Z,5.64
2022-11-24T02:45:44.906Z,5.59
2022-11-24T02:48:14.690Z,5.65
2022-11-24T02:50:42.835Z,5.68
2022-11-24T02:53:10.840Z,5.65
2022-11-24T02:55:38.957Z,5.68
2022-11-24T02:58:07.173Z,5.71
2022-11-24T03:00:35.338Z,5.65
2022-11-24T03:03:05.043Z,5.63
2022-11-24T03:05:33.055Z,5.61
2022-11-24T03:08:01.199Z,5.64
2022-11-24T03:10:29.509Z,5.65
2022-11-24T03:12:57.569Z,5.55
2022-11-24T03:15:25.591Z,5.54
2022-11-24T03:17:55.775Z,5.57
2022-11-24T03:20:25.620Z,5.56
2022-11-24T03:22:53.749Z,5.59
2022-11-24T03:25:21.909Z,5.54
2022-11-24T03:27:49.887Z,5.54
2022-11-24T03:30:18.248Z,5.54
2022-11-24T03:32:46.250Z,5.57
2022-11-24T03:35:14.325Z,5.58
2022-11-24T03:37:43.695Z,5.61
2022-11-24T03:40:12.540Z,5.67
2022-11-24T03:42:41.065Z,5.65
2022-11-24T03:45:44.226Z,5.65
2022-11-24T03:47:58.132Z,5.67
2022-11-24T03:50:26.222Z,5.75
2022-11-24T03:52:55.607Z,5.69
2022-11-24T03:55:23.660Z,5.69
2022-11-24T03:57:51.668Z,5.66
2022-11-24T04:00:19.864Z,5.65
2022-11-24T04:02:48.599Z,5.65
2022-11-24T04:05:16.872Z,5.67
2022-11-24T04:07:44.897Z,5.67
2022-11-24T04:10:14.905Z,5.63
2022-11-24T04:12:44.815Z,5.58
2022-11-24T04:15:13.909Z,5.57
2022-11-24T04:17:42.104Z,5.57
2022-11-24T04:20:11.668Z,5.62
2022-11-24T04:22:39.725Z,5.62
2022-11-24T04:25:09.199Z,5.61
2022-11-24T04:27:39.164Z,5.73
2022-11-24T04:30:08.627Z,5.65
2022-11-24T04:32:36.818Z,5.75
2022-11-24T04:35:05.047Z,5.88
2022-11-24T04:37:33.291Z,5.93
2022-11-24T04:40:01.354Z,5.86
2022-11-24T04:42:29.505Z,5.91
2022-11-24T04:44:58.904Z,5.91
2022-11-24T04:47:27.643Z,5.97
2022-11-24T04:49:56.047Z,6.00
2022-11-24T04:52:25.610Z,6.03
2022-11-24T04:54:53.778Z,5.88
2022-11-24T04:57:24.194Z,5.96
2022-11-24T04:59:52.631Z,5.95
2022-11-24T05:02:22.438Z,5.91
2022-11-24T05:04:50.920Z,6.00
2022-11-24T05:07:19.657Z,6.07
2022-11-24T05:10:05.560Z,5.93
2022-11-24T05:12:33.647Z,5.82
2022-11-24T05:15:02.942Z,5.85
2022-11-24T05:17:34.963Z,5.77
2022-11-24T05:20:03.411Z,5.82
2022-11-24T05:22:31.714Z,5.85
2022-11-24T05:25:00.095Z,5.91
2022-11-24T05:27:28.166Z,5.96
2022-11-24T05:29:56.257Z,5.92
2022-11-24T05:32:24.429Z,5.98
2022-11-24T05:34:54.649Z,5.95
2022-11-24T05:37:22.843Z,5.91
2022-11-24T05:39:50.858Z,5.98
2022-11-24T05:42:36.358Z,5.99
2022-11-24T05:45:04.909Z,5.96
2022-11-24T05:47:34.131Z,5.99
2022-11-24T05:50:03.564Z,5.95
2022-11-24T05:52:31.648Z,5.81
2022-11-24T05:54:59.691Z,5.69
2022-11-24T05:57:27.782Z,5.62
2022-11-24T05:59:55.915Z,5.62
2022-11-24T06:02:24.160Z,5.66
2022-11-24T06:04:52.271Z,5.63
2022-11-24T06:07:21.696Z,5.64
2022-11-24T06:09:49.752Z,5.67
2022-11-24T06:12:17.832Z,5.69
2022-11-24T06:14:45.874Z,5.72
2022-11-24T06:17:13.971Z,5.73
2022-11-24T06:19:43.678Z,5.77
2022-11-24T06:22:11.746Z,5.80
2022-11-24T06:24:41.123Z,5.83
2022-11-24T06:27:09.142Z,5.83
2022-11-24T06:29:37.214Z,5.85
2022-11-24T06:32:05.657Z,5.89
2022-11-24T06:34:34.095Z,5.93
2022-11-24T06:37:02.375Z,5.92
2022-11-24T06:39:30.408Z,5.96
2022-11-24T06:41:59.959Z,5.97
2022-11-24T06:44:28.015Z,5.97
2022-11-24T06:46:56.151Z,5.99
2022-11-24T06:49:24.270Z,6.04
2022-11-24T06:51:52.300Z,6.06
2022-11-24T06:54:21.146Z,6.06
2022-11-24T06:56:49.204Z,6.03
2022-11-24T06:59:20.539Z,6.06
2022-11-24T07:01:48.744Z,6.06
2022-11-24T07:04:17.062Z,6.12
2022-11-24T07:06:45.128Z,6.18
2022-11-24T07:09:14.449Z,6.15
2022-11-24T07:11:42.611Z,6.14
2022-11-24T07:14:10.858Z,6.17
2022-11-24T07:16:40.622Z,6.13
2022-11-24T07:19:10.984Z,6.15
2022-11-24T07:21:39.042Z,6.15
2022-11-24T07:24:07.859Z,6.13
2022-11-24T07:26:37.484Z,6.14
2022-11-24T07:29:06.035Z,6.14
2022-11-24T07:31:34.229Z,6.25
2022-11-24T07:34:03.684Z,6.19
2022-11-24T07:36:31.919Z,6.20
2022-11-24T07:39:00.018Z,6.22
2022-11-24T07:41:28.027Z,6.26
2022-11-24T07:43:56.793Z,6.31
2022-11-24T07:46:24.924Z,6.33
2022-11-24T07:48:53.026Z,6.36
2022-11-24T07:51:22.470Z,6.37
2022-11-24T07:53:50.518Z,6.37
2022-11-24T07:56:18.622Z,6.35
2022-11-24T07:58:52.484Z,6.38
2022-11-24T08:01:21.292Z,6.36
2022-11-24T08:03:49.502Z,6.42
2022-11-24T08:06:29.003Z,6.42
2022-11-24T08:09:01.922Z,6.51
2022-11-24T08:11:31.417Z,6.54
2022-11-24T08:13:59.739Z,6.56
2022-11-24T08:16:27.856Z,6.60
2022-11-24T08:18:57.065Z,6.62
2022-11-24T08:21:25.785Z,6.71
2022-11-24T08:23:56.065Z,6.78
2022-11-24T08:26:25.799Z,6.85
2022-11-24T08:28:56.426Z,6.94
2022-11-24T08:31:27.660Z,7.02
2022-11-24T08:33:56.442Z,7.12
2022-11-24T08:36:24.581Z,7.23
2022-11-24T08:38:56.116Z,7.28
2022-11-24T08:41:26.257Z,7.28
2022-11-24T08:43:54.341Z,7.33
2022-11-24T08:46:22.612Z,7.32
2022-11-24T08:48:53.217Z,7.32
2022-11-24T08:51:22.431Z,7.34
2022-11-24T08:53:50.727Z,7.34
2022-11-24T08:56:18.813Z,7.41
2022-11-24T08:58:48.337Z,7.45
2022-11-24T09:01:18.246Z,7.46
2022-11-24T09:03:50.952Z,7.44
2022-11-24T09:06:20.072Z,7.46
2022-11-24T09:08:48.567Z,7.50
2022-11-24T09:11:17.400Z,7.57
2022-11-24T09:13:46.103Z,7.63
2022-11-24T09:16:16.959Z,7.68
2022-11-24T09:18:45.744Z,7.65
2022-11-24T09:21:16.006Z,7.67
2022-11-24T09:23:45.208Z,7.66
2022-11-24T09:26:15.485Z,7.63
2022-11-24T09:28:44.053Z,7.69
2022-11-24T09:31:14.175Z,7.82
2022-11-24T09:33:44.320Z,7.82
2022-11-24T09:36:12.529Z,7.83
2022-11-24T09:38:40.650Z,7.87
2022-11-24T09:41:36.068Z,7.87
2022-11-24T09:44:09.669Z,7.84
2022-11-24T09:46:42.771Z,7.88
2022-11-24T09:49:15.443Z,7.95
2022-11-24T09:51:45.460Z,7.99
2022-11-24T09:54:18.074Z,8.06
2022-11-24T09:56:47.741Z,8.10
2022-11-24T09:59:17.795Z,8.14
2022-11-24T10:01:47.102Z,8.13
2022-11-24T10:04:19.837Z,8.09
2022-11-24T10:06:53.269Z,8.22
2022-11-24T10:09:34.259Z,8.26
2022-11-24T10:12:13.678Z,8.21
2022-11-24T10:14:59.437Z,8.24
2022-11-24T10:17:38.033Z,8.32
2022-11-24T10:20:12.256Z,8.39
2022-11-24T10:22:47.851Z,8.44
2022-11-24T10:25:22.847Z,8.49
2022-11-24T10:27:56.366Z,8.49
2022-11-24T10:30:24.919Z,8.51
2022-11-24T10:32:57.377Z,8.44
2022-11-24T10:35:30.254Z,8.43
2022-11-24T10:38:08.903Z,8.35
2022-11-24T10:40:56.416Z,8.32
2022-11-24T10:43:27.414Z,8.33
2022-11-24T10:45:56.368Z,8.36
2022-11-24T10:48:27.310Z,8.31
2022-11-24T10:51:02.384Z,8.30
2022-11-24T10:53:31.523Z,8.32
2022-11-24T10:56:04.961Z,8.30
2022-11-24T10:58:37.619Z,8.27
2022-11-24T11:01:22.332Z,8.25
2022-11-24T11:03:52.828Z,8.26
2022-11-24T11:06:24.732Z,8.17
2022-11-24T11:09:17.531Z,8.14
2022-11-24T11:11:48.268Z,8.00
2022-11-24T11:14:30.984Z,8.02
2022-11-24T11:16:59.301Z,7.93
2022-11-24T11:19:48.356Z,7.81
2022-11-24T11:22:25.563Z,7.68
2022-11-24T11:25:05.249Z,7.71
2022-11-24T11:27:33.400Z,7.62
2022-11-24T11:36:10.907Z,7.48
2022-11-24T11:38:41.639Z,7.46
2022-11-24T11:41:18.894Z,7.50
2022-11-24T11:43:49.756Z,7.59
2022-11-24T11:46:17.984Z,7.59
2022-11-24T11:48:47.413Z,7.60
2022-11-24T11:51:31.872Z,7.58
2022-11-24T11:54:06.523Z,7.53
2022-11-24T11:56:37.322Z,7.64
2022-11-24T11:59:25.333Z,7.51
2022-11-24T12:02:29.154Z,7.58
2022-11-24T12:04:59.455Z,7.57
2022-11-24T12:07:42.282Z,7.62
2022-11-24T12:10:19.141Z,7.61
2022-11-24T12:12:59.940Z,7.64
2022-11-24T12:15:33.837Z,7.69
2022-11-24T12:18:33.133Z,7.65
2022-11-24T12:21:07.781Z,7.59
2022-11-24T12:23:44.062Z,7.55
2022-11-24T12:26:20.230Z,7.47
2022-11-24T12:28:55.209Z,7.43
2022-11-24T12:31:27.348Z,7.42
2022-11-24T12:34:22.625Z,7.53
2022-11-24T12:37:12.690Z,7.59
2022-11-24T12:39:46.833Z,7.60
2022-11-24T12:42:26.208Z,7.58
2022-11-24T12:45:15.537Z,7.63
2022-11-24T12:47:58.902Z,7.52
2022-11-24T12:50:29.282Z,7.58
2022-11-24T12:53:01.505Z,7.58
2022-11-24T12:55:32.190Z,7.61
2022-11-24T12:58:11.218Z,7.61
2022-11-24T13:00:48.922Z,7.64
2022-11-24T13:03:26.036Z,7.58
2022-11-24T13:05:58.833Z,7.58
2022-11-24T13:08:27.497Z,7.66
2022-11-24T13:10:57.323Z,7.68
2022-11-24T13:13:30.407Z,7.72
2022-11-24T13:19:15.094Z,7.81
2022-11-24T13:21:51.949Z,7.77
2022-11-24T13:24:24.440Z,7.74
2022-11-24T13:26:54.500Z,7.76
2022-11-24T13:29:35.806Z,7.70
2022-11-24T13:32:40.176Z,7.67
2022-11-24T13:35:15.162Z,7.72
2022-11-24T13:37:51.525Z,7.67
2022-11-24T13:40:45.865Z,7.70
2022-11-24T13:43:23.995Z,7.74
2022-11-24T13:45:54.633Z,7.66
2022-11-24T13:48:54.895Z,7.65
2022-11-24T13:51:24.859Z,7.70
2022-11-24T13:53:54.948Z,7.62
2022-11-24T13:56:26.572Z,7.61
2022-11-24T13:58:56.765Z,7.62
2022-11-24T14:01:28.382Z,7.62
2022-11-24T14:04:29.472Z,7.55
2022-11-24T14:07:02.511Z,7.53
2022-11-24T14:09:37.036Z,7.56
2022-11-24T14:12:14.940Z,7.47
2022-11-24T14:14:44.164Z,7.48
2022-11-24T14:17:22.841Z,7.36
2022-11-24T14:19:52.756Z,7.37
2022-11-24T14:22:22.973Z,7.43
2022-11-24T14:24:55.803Z,7.43
2022-11-24T14:27:29.341Z,7.43
2022-11-24T14:29:59.018Z,7.42
2022-11-24T14:32:28.619Z,7.42
2022-11-24T14:34:57.944Z,7.44
2022-11-24T14:37:26.109Z,7.42
2022-11-24T14:39:54.270Z,7.33
2022-11-24T14:42:23.586Z,7.32
2022-11-24T14:44:54.145Z,7.28
2022-11-24T14:47:31.863Z,7.23
2022-11-24T14:50:10.104Z,7.29
2022-11-24T14:52:45.390Z,7.22
2022-11-24T14:55:26.659Z,7.22
2022-11-24T14:57:54.856Z,7.21
2022-11-24T15:00:28.436Z,7.13
2022-11-24T15:03:13.523Z,7.10
2022-11-24T15:06:00.475Z,7.14
2022-11-24T15:08:30.105Z,7.11
2022-11-24T15:11:00.326Z,7.09
2022-11-24T15:13:28.961Z,7.19
2022-11-24T15:16:02.827Z,7.18
2022-11-24T15:18:38.662Z,7.15
2022-11-24T15:21:07.040Z,7.32
2022-11-24T15:23:35.858Z,7.32
2022-11-24T15:26:30.718Z,7.17
2022-11-24T15:29:01.164Z,6.91
2022-11-24T15:31:29.270Z,6.92
2022-11-24T15:33:58.689Z,6.90
2022-11-24T15:36:26.780Z,6.94
2022-11-24T15:38:56.084Z,6.92
2022-11-24T15:41:30.052Z,6.92
2022-11-24T15:43:59.876Z,6.81
2022-11-24T15:46:28.584Z,6.65
2022-11-24T15:48:58.127Z,6.54
2022-11-24T15:51:27.275Z,6.53
2022-11-24T15:54:00.735Z,6.46
2022-11-24T15:56:32.365Z,6.47
2022-11-24T15:59:00.490Z,6.38
2022-11-24T16:01:30.408Z,6.46
2022-11-24T16:03:59.874Z,6.45
2022-11-24T16:06:27.918Z,6.50
2022-11-24T16:08:56.091Z,6.48
2022-11-24T16:11:24.257Z,6.46
2022-11-24T16:13:53.919Z,6.49
2022-11-24T16:16:22.977Z,6.37
2022-11-24T16:18:51.176Z,6.29
2022-11-24T16:21:20.605Z,6.27
2022-11-24T16:23:48.812Z,6.23
2022-11-24T16:26:16.945Z,6.30
2022-11-24T16:28:45.826Z,6.21
2022-11-24T16:31:16.058Z,6.20
2022-11-24T16:33:44.785Z,6.37
2022-11-24T16:36:13.282Z,6.30
2022-11-24T16:38:42.896Z,6.32
2022-11-24T16:41:11.056Z,6.37
2022-11-24T16:43:39.609Z,6.34
2022-11-24T16:46:32.921Z,6.28
2022-11-24T16:49:01.585Z,6.23
2022-11-24T16:51:34.633Z,6.41
2022-11-24T16:54:05.376Z,6.30
2022-11-24T16:56:33.426Z,6.37
2022-11-24T16:59:01.554Z,6.31
2022-11-24T17:01:30.600Z,6.28
2022-11-24T17:03:58.619Z,6.39
2022-11-24T17:06:26.896Z,6.44
2022-11-24T17:08:56.476Z,6.54
2022-11-24T17:11:27.665Z,6.56
2022-11-24T17:13:57.238Z,6.61
2022-11-24T17:16:26.600Z,6.62
2022-11-24T17:18:54.845Z,6.64
2022-11-24T17:21:24.820Z,6.64
2022-11-24T17:23:54.650Z,6.62
2022-11-24T17:26:23.009Z,6.63
2022-11-24T17:28:52.670Z,6.48
2022-11-24T17:31:22.654Z,6.43
2022-11-24T17:33:51.377Z,6.37
2022-11-24T17:36:19.833Z,6.43
2022-11-24T17:38:49.395Z,6.30
2022-11-24T17:41:17.520Z,6.25
2022-11-24T17:43:49.360Z,6.05
2022-11-24T17:46:19.691Z,6.04
2022-11-24T17:48:47.991Z,6.09
2022-11-24T17:51:17.455Z,6.13
2022-11-24T17:53:46.983Z,6.04
2022-11-24T17:56:16.801Z,6.10
2022-11-24T17:58:45.391Z,6.16
2022-11-24T18:01:14.352Z,6.13
2022-11-24T18:03:46.670Z,6.22
2022-11-24T18:06:18.197Z,6.26
2022-11-24T18:08:47.947Z,6.31
2022-11-24T18:11:17.390Z,6.30
2022-11-24T18:14:02.171Z,6.31
2022-11-24T18:16:31.750Z,6.35
2022-11-24T18:19:10.795Z,6.36
2022-11-24T18:21:47.613Z,6.35
2022-11-24T18:24:19.791Z,6.32
2022-11-24T18:26:51.933Z,6.29
2022-11-24T18:29:20.076Z,6.26
2022-11-24T18:31:48.334Z,6.13
2022-11-24T18:34:17.908Z,5.99
2022-11-24T18:36:47.516Z,5.97
2022-11-24T18:39:18.060Z,5.98
2022-11-24T18:41:46.462Z,5.99
2022-11-24T18:44:14.630Z,5.99
2022-11-24T18:46:42.746Z,6.00
2022-11-24T18:49:10.856Z,5.97
2022-11-24T18:51:40.453Z,5.96
2022-11-24T18:54:08.765Z,5.90
2022-11-24T18:56:36.999Z,5.84
2022-11-24T18:59:05.205Z,5.79
2022-11-24T19:01:33.558Z,5.69
2022-11-24T19:04:03.058Z,5.65
2022-11-24T19:06:33.057Z,5.59
2022-11-24T19:09:04.554Z,5.57
2022-11-24T19:11:35.324Z,5.59
2022-11-24T19:14:05.066Z,5.65
2022-11-24T19:16:33.585Z,5.68
2022-11-24T19:19:03.028Z,5.70
2022-11-24T19:21:32.756Z,5.70
2022-11-24T19:24:05.310Z,5.68
2022-11-24T19:26:34.954Z,5.50
2022-11-24T19:29:03.515Z,5.36
2022-11-24T19:31:32.141Z,5.33
2022-11-24T19:34:00.797Z,5.22
2022-11-24T19:36:28.971Z,5.25
2022-11-24T19:38:58.193Z,5.19
2022-11-24T19:41:29.493Z,5.12
2022-11-24T19:43:58.622Z,4.94
2022-11-24T19:46:29.269Z,4.87
2022-11-24T19:49:00.541Z,4.79
2022-11-24T19:51:30.650Z,4.93
2022-11-24T19:53:59.304Z,4.84
2022-11-24T19:56:30.993Z,4.81
2022-11-24T19:58:59.140Z,4.73
2022-11-24T20:01:29.187Z,4.74
2022-11-24T20:03:59.186Z,4.72
2022-11-24T20:06:28.179Z,4.68
2022-11-24T20:08:56.434Z,4.65
2022-11-24T20:11:24.682Z,4.61
2022-11-24T20:13:54.338Z,4.60
2022-11-24T20:16:26.519Z,4.55
2022-11-24T20:18:55.692Z,4.48
2022-11-24T20:21:25.306Z,4.49
2022-11-24T20:23:55.882Z,4.46
2022-11-24T20:26:25.881Z,4.43
2022-11-24T20:28:56.440Z,4.42
2022-11-24T20:31:26.749Z,4.50
2022-11-24T20:33:55.086Z,4.40
2022-11-24T20:36:25.597Z,4.37
2022-11-24T20:38:54.350Z,4.32
2022-11-24T20:41:24.172Z,4.28
2022-11-24T20:43:52.949Z,4.32
2022-11-24T20:46:23.568Z,4.37
2022-11-24T20:48:52.086Z,4.26
2022-11-24T20:51:23.446Z,4.23
2022-11-24T20:53:52.387Z,4.24
2022-11-24T20:56:22.004Z,4.15
2022-11-24T20:58:50.062Z,4.15
2022-11-24T21:01:19.706Z,4.06
2022-11-24T21:03:53.403Z,4.02
2022-11-24T21:06:21.675Z,4.06
2022-11-24T21:08:50.493Z,3.98
2022-11-24T21:11:19.621Z,3.96
2022-11-24T21:13:48.718Z,3.87
2022-11-24T21:16:18.620Z,3.88
2022-11-24T21:18:50.657Z,3.84
2022-11-24T21:21:19.357Z,3.74
2022-11-24T21:23:47.795Z,3.65
2022-11-24T21:26:17.297Z,3.59
2022-11-24T21:28:46.873Z,3.65
2022-11-24T21:31:17.113Z,3.58
2022-11-24T21:33:46.588Z,3.60
2022-11-24T21:36:18.043Z,3.57
2022-11-24T21:38:51.021Z,3.54
2022-11-24T21:41:19.927Z,3.54
2022-11-24T21:43:48.067Z,3.49
2022-11-24T21:46:16.185Z,3.45
2022-11-24T21:48:45.340Z,3.44
2022-11-24T21:51:15.708Z,3.44
2022-11-24T21:53:46.528Z,3.37
2022-11-24T21:56:17.053Z,3.35
2022-11-24T21:58:47.167Z,3.35
2022-11-24T22:01:16.380Z,3.36
2022-11-24T22:03:45.721Z,3.32
2022-11-24T22:06:14.209Z,3.32
2022-11-24T22:08:42.376Z,3.27
2022-11-24T22:11:13.866Z,3.20
2022-11-24T22:13:42.514Z,3.26
2022-11-24T22:16:12.627Z,3.31
2022-11-24T22:18:42.046Z,3.32
2022-11-24T22:21:13.525Z,3.26
2022-11-24T22:23:41.897Z,3.20
2022-11-24T22:26:14.447Z,3.21
2022-11-24T22:28:43.246Z,3.08
2022-11-24T22:31:13.105Z,3.05
2022-11-24T22:33:41.356Z,2.99
2022-11-24T22:36:10.676Z,2.96
2022-11-24T22:38:39.034Z,2.91
2022-11-24T22:41:08.482Z,2.91
2022-11-24T22:43:40.433Z,2.82
2022-11-24T22:46:10.986Z,2.68
2022-11-24T22:48:39.615Z,2.57
2022-11-24T22:51:09.140Z,2.53
2022-11-24T22:53:37.411Z,2.49
2022-11-24T22:56:07.281Z,2.52
2022-11-24T22:58:35.350Z,2.57
2022-11-24T23:01:08.473Z,2.61
2022-11-24T23:03:37.407Z,2.54
2022-11-24T23:06:07.229Z,2.55
2022-11-24T23:08:36.588Z,2.57
2022-11-24T23:11:06.343Z,2.53
2022-11-24T23:13:34.435Z,2.47
2022-11-24T23:16:03.826Z,2.53
2022-11-24T23:18:33.559Z,2.53
2022-11-24T23:21:06.414Z,2.41
2022-11-24T23:23:34.682Z,2.38
2022-11-24T23:26:03.083Z,2.37
2022-11-24T23:28:31.193Z,2.35
2022-11-24T23:31:02.505Z,2.34
2022-11-24T23:33:31.092Z,2.28
2022-11-24T23:36:03.065Z,2.38
2022-11-24T23:38:32.762Z,2.29
2022-11-24T23:41:04.146Z,2.23
2022-11-24T23:43:32.542Z,2.22
2022-11-24T23:46:04.125Z,2.16
2022-11-24T23:48:32.535Z,2.11
2022-11-24T23:51:06.088Z,2.02
2022-11-24T23:53:34.547Z,1.98
2022-11-24T23:56:02.604Z,1.95
2022-11-24T23:58:31.509Z,1.94
